createdAt,value
2019-03-08T00:00:14.899Z,5.75
2019-03-08T00:01:26.134Z,5.75
2019-03-08T00:02:36.877Z,5.73
2019-03-08T00:03:47.619Z,5.74
2019-03-08T00:04:58.372Z,5.76
2019-03-08T00:06:09.100Z,5.77
2019-03-08T00:07:19.878Z,5.80
2019-03-08T00:08:30.624Z,5.83
2019-03-08T00:09:41.366Z,5.86
2019-03-08T00:10:52.096Z,5.87
2019-03-08T00:12:03.316Z,5.89
2019-03-08T00:13:14.058Z,5.92
2019-03-08T00:14:24.802Z,5.95
2019-03-08T00:15:35.547Z,5.99
2019-03-08T00:16:46.267Z,6.01
2019-03-08T00:17:57.013Z,6.04
2019-03-08T00:19:10.137Z,6.05
2019-03-08T00:20:18.977Z,6.08
2019-03-08T00:21:30.210Z,6.10
2019-03-08T00:22:40.940Z,6.11
2019-03-08T00:23:52.677Z,6.10
2019-03-08T00:25:03.412Z,6.09
2019-03-08T00:26:14.650Z,6.06
2019-03-08T00:27:26.390Z,6.04
2019-03-08T00:28:37.630Z,6.01
2019-03-08T00:29:48.369Z,5.98
2019-03-08T00:30:59.103Z,5.95
2019-03-08T00:32:09.834Z,5.92
2019-03-08T00:33:20.576Z,5.89
2019-03-08T00:34:31.317Z,5.87
2019-03-08T00:35:42.057Z,5.83
2019-03-08T00:36:52.788Z,5.80
2019-03-08T00:38:03.533Z,5.75
2019-03-08T00:39:14.271Z,5.69
2019-03-08T00:40:25.010Z,5.64
2019-03-08T00:41:35.759Z,5.59
2019-03-08T00:42:46.650Z,5.54
2019-03-08T00:43:57.389Z,5.49
2019-03-08T00:45:08.119Z,5.46
2019-03-08T00:46:18.853Z,5.42
2019-03-08T00:47:29.584Z,5.40
2019-03-08T00:48:40.324Z,5.39
2019-03-08T00:49:51.054Z,5.37
2019-03-08T00:51:01.782Z,5.36
2019-03-08T00:52:12.508Z,5.34
2019-03-08T00:53:23.280Z,5.32
2019-03-08T00:54:34.659Z,5.31
2019-03-08T00:55:45.372Z,5.30
2019-03-08T00:56:56.093Z,5.28
2019-03-08T00:58:06.818Z,5.26
2019-03-08T00:59:17.569Z,5.24
2019-03-08T01:00:28.299Z,5.21
2019-03-08T01:01:39.031Z,5.20
2019-03-08T01:02:49.764Z,5.20
2019-03-08T01:04:00.508Z,5.20
2019-03-08T01:05:11.241Z,5.20
2019-03-08T01:06:21.967Z,5.21
2019-03-08T01:07:32.710Z,5.21
2019-03-08T01:08:43.437Z,5.22
2019-03-08T01:09:54.177Z,5.22
2019-03-08T01:11:04.895Z,5.21
2019-03-08T01:12:15.645Z,5.22
2019-03-08T01:13:26.352Z,5.23
2019-03-08T01:14:37.082Z,5.23
2019-03-08T01:15:48.803Z,5.23
2019-03-08T01:17:00.527Z,5.24
2019-03-08T01:18:11.254Z,5.27
2019-03-08T01:19:22.253Z,5.28
2019-03-08T01:20:33.474Z,5.27
2019-03-08T01:21:44.696Z,5.27
2019-03-08T01:22:55.907Z,5.26
2019-03-08T01:24:07.121Z,5.25
2019-03-08T01:25:17.851Z,5.25
2019-03-08T01:26:28.569Z,5.24
2019-03-08T01:27:39.290Z,5.23
2019-03-08T01:28:50.034Z,5.21
2019-03-08T01:30:00.776Z,5.20
2019-03-08T01:31:11.669Z,5.22
2019-03-08T01:32:22.400Z,5.23
2019-03-08T01:33:33.122Z,5.24
2019-03-08T01:34:43.853Z,5.25
2019-03-08T01:35:54.579Z,5.23
2019-03-08T01:37:05.801Z,5.23
2019-03-08T01:38:16.523Z,5.24
2019-03-08T01:39:27.240Z,5.25
2019-03-08T01:40:37.981Z,5.28
2019-03-08T01:41:48.724Z,5.30
2019-03-08T01:42:59.633Z,5.32
2019-03-08T01:44:10.354Z,5.32
2019-03-08T01:45:21.646Z,5.33
2019-03-08T01:46:32.376Z,5.34
2019-03-08T01:47:43.097Z,5.33
2019-03-08T01:48:53.821Z,5.31
2019-03-08T01:50:05.649Z,5.30
2019-03-08T01:51:16.384Z,5.28
2019-03-08T01:52:27.633Z,5.27
2019-03-08T01:53:38.860Z,5.27
2019-03-08T01:54:49.596Z,5.29
2019-03-08T01:56:01.323Z,5.31
2019-03-08T01:57:12.044Z,5.33
2019-03-08T01:58:22.766Z,5.35
2019-03-08T01:59:33.494Z,5.35
2019-03-08T02:00:44.726Z,5.35
2019-03-08T02:01:55.445Z,5.35
2019-03-08T02:03:06.183Z,5.35
2019-03-08T02:04:16.900Z,5.34
2019-03-08T02:05:27.628Z,5.33
2019-03-08T02:06:38.358Z,5.34
2019-03-08T02:07:49.080Z,5.33
2019-03-08T02:08:59.807Z,5.33
2019-03-08T02:10:10.541Z,5.35
2019-03-08T02:11:21.781Z,5.36
2019-03-08T02:12:32.994Z,5.37
2019-03-08T02:13:43.719Z,5.38
2019-03-08T02:14:54.443Z,5.39
2019-03-08T02:16:05.180Z,5.41
2019-03-08T02:17:15.930Z,5.41
2019-03-08T02:18:26.649Z,5.40
2019-03-08T02:19:37.369Z,5.41
2019-03-08T02:20:48.599Z,5.43
2019-03-08T02:21:59.353Z,5.45
2019-03-08T02:23:10.067Z,5.45
2019-03-08T02:24:20.800Z,5.46
2019-03-08T02:25:31.537Z,5.48
2019-03-08T02:26:42.264Z,5.51
2019-03-08T02:27:52.988Z,5.54
2019-03-08T02:29:03.709Z,5.56
2019-03-08T02:30:14.920Z,5.57
2019-03-08T02:31:25.649Z,5.58
2019-03-08T02:32:36.375Z,5.56
2019-03-08T02:33:47.111Z,5.56
2019-03-08T02:34:57.830Z,5.54
2019-03-08T02:36:08.567Z,5.53
2019-03-08T02:37:19.292Z,5.52
2019-03-08T02:38:30.016Z,5.49
2019-03-08T02:39:40.745Z,5.48
2019-03-08T02:40:51.643Z,5.45
2019-03-08T02:42:02.372Z,5.44
2019-03-08T02:43:13.122Z,5.43
2019-03-08T02:44:23.843Z,5.40
2019-03-08T02:45:34.563Z,5.40
2019-03-08T02:46:45.298Z,5.39
2019-03-08T02:47:56.025Z,5.38
2019-03-08T02:49:06.748Z,5.36
2019-03-08T02:50:17.636Z,5.35
2019-03-08T02:51:28.363Z,5.34
2019-03-08T02:52:39.092Z,5.36
2019-03-08T02:53:49.855Z,5.34
2019-03-08T02:55:00.575Z,5.34
2019-03-08T02:56:11.819Z,5.33
2019-03-08T02:57:23.621Z,5.35
2019-03-08T02:58:34.847Z,5.36
2019-03-08T02:59:45.563Z,5.37
2019-03-08T03:00:56.303Z,5.38
2019-03-08T03:02:07.023Z,5.39
2019-03-08T03:03:17.744Z,5.40
2019-03-08T03:04:28.964Z,5.39
2019-03-08T03:05:40.688Z,5.41
2019-03-08T03:06:51.422Z,5.42
2019-03-08T03:08:02.151Z,5.44
2019-03-08T03:09:12.867Z,5.46
2019-03-08T03:10:23.599Z,5.46
2019-03-08T03:11:34.330Z,5.47
2019-03-08T03:12:45.056Z,5.47
2019-03-08T03:13:55.791Z,5.47
2019-03-08T03:15:07.625Z,5.48
2019-03-08T03:16:18.342Z,5.50
2019-03-08T03:17:29.075Z,5.52
2019-03-08T03:18:39.792Z,5.54
2019-03-08T03:19:50.508Z,5.57
2019-03-08T03:21:01.233Z,5.58
2019-03-08T03:22:11.956Z,5.58
2019-03-08T03:23:22.680Z,5.58
2019-03-08T03:24:33.405Z,5.58
2019-03-08T03:25:44.128Z,5.59
2019-03-08T03:26:54.857Z,5.59
2019-03-08T03:28:06.637Z,5.61
2019-03-08T03:29:17.861Z,5.65
2019-03-08T03:30:28.585Z,5.66
2019-03-08T03:31:39.316Z,5.69
2019-03-08T03:32:50.043Z,5.73
2019-03-08T03:34:00.767Z,5.78
2019-03-08T03:35:12.002Z,5.82
2019-03-08T03:36:23.237Z,5.85
2019-03-08T03:37:33.957Z,5.86
2019-03-08T03:38:44.687Z,5.86
2019-03-08T03:39:55.410Z,5.88
2019-03-08T03:41:06.125Z,5.88
2019-03-08T03:42:16.861Z,5.89
2019-03-08T03:43:27.593Z,5.90
2019-03-08T03:44:38.324Z,5.91
2019-03-08T03:45:49.056Z,5.91
2019-03-08T03:47:00.286Z,5.89
2019-03-08T03:48:11.015Z,5.88
2019-03-08T03:49:21.741Z,5.87
2019-03-08T03:50:33.466Z,5.84
2019-03-08T03:51:44.191Z,5.82
2019-03-08T03:52:54.927Z,5.80
2019-03-08T03:54:05.649Z,5.81
2019-03-08T03:55:16.380Z,5.79
2019-03-08T03:56:27.116Z,5.79
2019-03-08T03:57:38.844Z,5.79
2019-03-08T03:58:50.060Z,5.79
2019-03-08T04:00:00.795Z,5.78
2019-03-08T04:01:11.526Z,5.76
2019-03-08T04:02:22.309Z,5.73
2019-03-08T04:03:33.040Z,5.72
2019-03-08T04:04:43.784Z,5.70
2019-03-08T04:05:54.506Z,5.68
2019-03-08T04:07:05.228Z,5.67
2019-03-08T04:08:15.960Z,5.64
2019-03-08T04:09:26.693Z,5.64
2019-03-08T04:10:37.423Z,5.66
2019-03-08T04:11:48.154Z,5.67
2019-03-08T04:12:59.380Z,5.67
2019-03-08T04:14:10.109Z,5.68
2019-03-08T04:15:20.843Z,5.71
2019-03-08T04:16:31.565Z,5.73
2019-03-08T04:17:42.290Z,5.72
2019-03-08T04:18:53.312Z,5.71
2019-03-08T04:20:04.039Z,5.69
2019-03-08T04:21:14.767Z,5.68
2019-03-08T04:22:25.494Z,5.65
2019-03-08T04:23:36.216Z,5.62
2019-03-08T04:24:47.446Z,5.60
2019-03-08T04:25:58.168Z,5.58
2019-03-08T04:27:08.888Z,5.56
2019-03-08T04:28:19.614Z,5.55
2019-03-08T04:29:30.349Z,5.54
2019-03-08T04:30:41.067Z,5.54
2019-03-08T04:31:51.787Z,5.50
2019-03-08T04:33:02.505Z,5.49
2019-03-08T04:34:13.239Z,5.46
2019-03-08T04:35:23.963Z,5.43
2019-03-08T04:36:34.697Z,5.41
2019-03-08T04:37:45.433Z,5.39
2019-03-08T04:38:56.174Z,5.38
2019-03-08T04:40:06.899Z,5.37
2019-03-08T04:41:17.629Z,5.36
2019-03-08T04:42:28.365Z,5.35
2019-03-08T04:43:39.088Z,5.37
2019-03-08T04:44:49.827Z,5.39
2019-03-08T04:46:00.548Z,5.42
2019-03-08T04:47:11.282Z,5.42
2019-03-08T04:48:22.007Z,5.44
2019-03-08T04:49:32.738Z,5.43
2019-03-08T04:50:43.630Z,5.42
2019-03-08T04:51:54.358Z,5.42
2019-03-08T04:53:05.086Z,5.42
2019-03-08T04:54:15.804Z,5.44
2019-03-08T04:55:26.534Z,5.46
2019-03-08T04:56:37.271Z,5.50
2019-03-08T04:57:48.005Z,5.55
2019-03-08T04:58:58.729Z,5.59
2019-03-08T05:00:09.943Z,5.62
2019-03-08T05:01:20.666Z,5.65
2019-03-08T05:02:31.384Z,5.68
2019-03-08T05:03:43.114Z,5.72
2019-03-08T05:04:53.846Z,5.73
2019-03-08T05:06:05.058Z,5.76
2019-03-08T05:07:16.270Z,5.78
2019-03-08T05:08:26.997Z,5.80
2019-03-08T05:09:38.212Z,5.83
2019-03-08T05:10:48.939Z,5.85
2019-03-08T05:11:59.666Z,5.87
2019-03-08T05:13:10.401Z,5.88
2019-03-08T05:14:21.614Z,5.89
2019-03-08T05:15:32.342Z,5.89
2019-03-08T05:16:43.061Z,5.90
2019-03-08T05:17:53.788Z,5.90
2019-03-08T05:19:04.512Z,5.92
2019-03-08T05:20:15.242Z,5.91
2019-03-08T05:21:25.982Z,5.90
2019-03-08T05:22:37.201Z,5.89
2019-03-08T05:23:47.923Z,5.87
2019-03-08T05:24:58.651Z,5.85
2019-03-08T05:26:09.381Z,5.83
2019-03-08T05:27:20.117Z,5.79
2019-03-08T05:28:30.843Z,5.78
2019-03-08T05:29:41.569Z,5.77
2019-03-08T05:30:52.301Z,5.76
2019-03-08T05:32:03.023Z,5.75
2019-03-08T05:33:14.241Z,5.73
2019-03-08T05:34:24.962Z,5.71
2019-03-08T05:35:35.690Z,5.68
2019-03-08T05:36:46.914Z,5.64
2019-03-08T05:37:57.644Z,5.62
2019-03-08T05:39:08.355Z,5.60
2019-03-08T05:40:20.087Z,5.58
2019-03-08T05:41:31.307Z,5.56
2019-03-08T05:42:42.035Z,5.55
2019-03-08T05:43:53.257Z,5.56
2019-03-08T05:45:04.485Z,5.56
2019-03-08T05:46:15.212Z,5.58
2019-03-08T05:47:26.435Z,5.56
2019-03-08T05:48:37.166Z,5.55
2019-03-08T05:49:48.375Z,5.56
2019-03-08T05:50:59.105Z,5.58
2019-03-08T05:52:09.823Z,5.58
2019-03-08T05:53:20.550Z,5.57
2019-03-08T05:54:31.277Z,5.54
2019-03-08T05:55:42.014Z,5.54
2019-03-08T05:56:52.750Z,5.50
2019-03-08T05:58:04.958Z,5.49
2019-03-08T05:59:15.695Z,5.47
2019-03-08T06:00:31.935Z,5.45
2019-03-08T06:01:37.148Z,5.44
2019-03-08T06:02:47.878Z,5.44
2019-03-08T06:03:59.622Z,5.43
2019-03-08T06:05:10.343Z,5.43
2019-03-08T06:06:21.069Z,5.42
2019-03-08T06:07:31.798Z,5.42
2019-03-08T06:08:42.515Z,5.43
2019-03-08T06:09:53.731Z,5.45
2019-03-08T06:11:04.454Z,5.48
2019-03-08T06:12:15.678Z,5.53
2019-03-08T06:13:26.403Z,5.57
2019-03-08T06:14:37.131Z,5.62
2019-03-08T06:15:47.868Z,5.67
2019-03-08T06:16:59.633Z,5.72
2019-03-08T06:18:10.358Z,5.75
2019-03-08T06:19:21.079Z,5.78
2019-03-08T06:20:31.810Z,5.83
2019-03-08T06:21:43.042Z,5.88
2019-03-08T06:22:54.256Z,5.90
2019-03-08T06:24:04.982Z,5.95
2019-03-08T06:25:16.210Z,6.00
2019-03-08T06:26:26.940Z,6.04
2019-03-08T06:27:37.670Z,6.08
2019-03-08T06:28:48.409Z,6.11
2019-03-08T06:29:59.133Z,6.15
2019-03-08T06:31:10.366Z,6.18
2019-03-08T06:32:21.097Z,6.23
2019-03-08T06:33:31.821Z,6.26
2019-03-08T06:34:42.549Z,6.30
2019-03-08T06:35:53.283Z,6.33
2019-03-08T06:37:04.020Z,6.37
2019-03-08T06:38:15.252Z,6.40
2019-03-08T06:39:26.982Z,6.45
2019-03-08T06:40:37.729Z,6.51
2019-03-08T06:41:48.465Z,6.54
2019-03-08T06:42:59.699Z,6.58
2019-03-08T06:44:10.944Z,6.60
2019-03-08T06:45:22.164Z,6.64
2019-03-08T06:46:32.916Z,6.66
2019-03-08T06:47:43.657Z,6.69
2019-03-08T06:48:54.403Z,6.73
2019-03-08T06:50:05.154Z,6.76
2019-03-08T06:51:15.905Z,6.79
2019-03-08T06:52:26.656Z,6.82
2019-03-08T06:53:37.397Z,6.83
2019-03-08T06:54:48.633Z,6.84
2019-03-08T06:55:59.368Z,6.85
2019-03-08T06:57:10.117Z,6.86
2019-03-08T06:58:21.061Z,6.89
2019-03-08T06:59:31.801Z,6.92
2019-03-08T07:00:43.053Z,6.96
2019-03-08T07:01:53.811Z,7.00
2019-03-08T07:03:05.049Z,7.07
2019-03-08T07:04:16.300Z,7.14
2019-03-08T07:05:27.616Z,7.21
2019-03-08T07:06:38.386Z,7.32
2019-03-08T07:07:49.638Z,7.47
2019-03-08T07:09:00.381Z,7.63
2019-03-08T07:10:11.139Z,7.81
2019-03-08T07:11:22.400Z,7.94
2019-03-08T07:12:33.168Z,8.05
2019-03-08T07:13:43.931Z,8.14
2019-03-08T07:14:54.712Z,8.24
2019-03-08T07:16:12.650Z,8.36
2019-03-08T07:17:16.392Z,8.47
2019-03-08T07:18:27.182Z,8.54
2019-03-08T07:19:41.019Z,8.55
2019-03-08T07:20:50.207Z,8.58
2019-03-08T07:22:00.989Z,8.60
2019-03-08T07:23:11.758Z,8.64
2019-03-08T07:24:22.537Z,8.72
2019-03-08T07:25:33.305Z,8.78
2019-03-08T07:26:44.079Z,8.80
2019-03-08T07:27:54.860Z,8.86
2019-03-08T07:29:05.638Z,8.93
2019-03-08T07:30:16.414Z,9.03
2019-03-08T07:31:27.214Z,9.13
2019-03-08T07:32:38.006Z,9.24
2019-03-08T07:33:53.115Z,9.36
2019-03-08T07:35:00.275Z,9.46
2019-03-08T07:36:10.867Z,9.57
2019-03-08T07:37:21.671Z,9.64
2019-03-08T07:38:32.469Z,9.62
2019-03-08T07:39:43.989Z,9.55
2019-03-08T07:40:54.794Z,9.50
2019-03-08T07:42:06.085Z,9.45
2019-03-08T07:43:16.919Z,9.42
2019-03-08T07:44:27.711Z,9.38
2019-03-08T07:45:38.513Z,9.32
2019-03-08T07:46:49.317Z,9.27
2019-03-08T07:48:01.628Z,9.23
2019-03-08T07:49:12.437Z,9.21
2019-03-08T07:50:23.291Z,9.19
2019-03-08T07:51:34.399Z,9.17
2019-03-08T07:52:45.212Z,9.13
2019-03-08T07:53:56.497Z,9.07
2019-03-08T07:55:07.298Z,9.02
2019-03-08T07:56:18.103Z,9.00
2019-03-08T07:57:28.882Z,8.98
2019-03-08T07:58:39.704Z,8.94
2019-03-08T07:59:53.765Z,8.92
2019-03-08T08:01:01.295Z,8.90
2019-03-08T08:02:12.085Z,8.86
2019-03-08T08:03:22.890Z,8.80
2019-03-08T08:04:34.170Z,8.76
2019-03-08T08:05:44.968Z,8.71
2019-03-08T08:06:55.766Z,8.68
2019-03-08T08:08:06.572Z,8.65
2019-03-08T08:09:17.843Z,8.63
2019-03-08T08:10:28.632Z,8.61
2019-03-08T08:11:39.426Z,8.63
2019-03-08T08:12:50.221Z,8.65
2019-03-08T08:14:01.024Z,8.61
2019-03-08T08:15:12.314Z,8.56
2019-03-08T08:16:23.622Z,8.51
2019-03-08T08:17:34.420Z,8.48
2019-03-08T08:18:45.209Z,8.47
2019-03-08T08:19:56.003Z,8.43
2019-03-08T08:21:07.291Z,8.44
2019-03-08T08:22:18.079Z,8.49
2019-03-08T08:23:34.366Z,8.53
2019-03-08T08:24:39.670Z,8.59
2019-03-08T08:25:50.473Z,8.63
2019-03-08T08:27:01.268Z,8.63
2019-03-08T08:28:12.550Z,8.62
2019-03-08T08:29:23.347Z,8.62
2019-03-08T08:30:34.163Z,8.63
2019-03-08T08:31:44.942Z,8.60
2019-03-08T08:32:55.733Z,8.57
2019-03-08T08:34:06.533Z,8.53
2019-03-08T08:35:17.320Z,8.53
2019-03-08T08:36:28.602Z,8.55
2019-03-08T08:37:39.904Z,8.57
2019-03-08T08:38:50.710Z,8.57
2019-03-08T08:40:01.540Z,8.58
2019-03-08T08:41:12.313Z,8.62
2019-03-08T08:42:23.634Z,8.70
2019-03-08T08:43:34.429Z,8.75
2019-03-08T08:44:45.742Z,8.77
2019-03-08T08:47:11.189Z,8.78
2019-03-08T08:48:22.496Z,8.72
2019-03-08T08:49:33.307Z,8.68
2019-03-08T08:50:44.102Z,8.66
2019-03-08T08:51:54.925Z,8.67
2019-03-08T08:53:06.230Z,8.66
2019-03-08T08:54:17.047Z,8.66
2019-03-08T08:55:27.851Z,8.61
2019-03-08T08:56:39.144Z,8.60
2019-03-08T08:57:50.438Z,8.61
2019-03-08T08:59:01.727Z,8.63
2019-03-08T09:00:12.532Z,8.64
2019-03-08T09:01:23.334Z,8.61
2019-03-08T09:02:34.138Z,8.59
2019-03-08T09:03:45.424Z,8.55
2019-03-08T09:04:56.748Z,8.53
2019-03-08T09:06:08.054Z,8.51
2019-03-08T09:07:18.857Z,8.51
2019-03-08T09:08:29.655Z,8.49
2019-03-08T09:09:40.459Z,8.45
2019-03-08T09:10:51.252Z,8.40
2019-03-08T09:12:02.062Z,8.35
2019-03-08T09:13:13.356Z,8.34
2019-03-08T09:14:24.651Z,8.31
2019-03-08T09:15:35.458Z,8.29
2019-03-08T09:16:46.301Z,8.26
2019-03-08T09:17:57.632Z,8.22
2019-03-08T09:19:08.571Z,8.19
2019-03-08T09:20:19.370Z,8.16
2019-03-08T09:21:30.695Z,8.12
2019-03-08T09:22:41.489Z,8.09
2019-03-08T09:23:53.916Z,8.07
2019-03-08T09:25:03.085Z,8.05
2019-03-08T09:26:13.885Z,8.02
2019-03-08T09:27:25.165Z,8.01
2019-03-08T09:28:36.456Z,7.97
2019-03-08T09:29:47.750Z,7.93
2019-03-08T09:30:58.578Z,7.90
2019-03-08T09:32:09.335Z,7.87
2019-03-08T09:33:20.136Z,7.86
2019-03-08T09:34:30.923Z,7.87
2019-03-08T09:35:41.717Z,7.86
2019-03-08T09:36:52.511Z,7.85
2019-03-08T09:38:03.298Z,7.85
2019-03-08T09:39:14.082Z,7.87
2019-03-08T09:40:24.874Z,7.88
2019-03-08T09:41:35.664Z,7.89
2019-03-08T09:42:46.457Z,7.88
2019-03-08T09:43:57.732Z,7.89
2019-03-08T09:45:09.006Z,7.89
2019-03-08T09:46:19.805Z,7.89
2019-03-08T09:47:31.091Z,7.92
2019-03-08T09:48:48.199Z,7.93
2019-03-08T09:49:52.663Z,7.95
2019-03-08T09:51:03.646Z,7.97
2019-03-08T09:52:14.444Z,8.00
2019-03-08T09:53:25.249Z,8.06
2019-03-08T09:54:36.111Z,8.10
2019-03-08T09:55:46.850Z,8.17
2019-03-08T09:56:57.655Z,8.26
2019-03-08T09:58:08.950Z,8.38
2019-03-08T09:59:20.245Z,8.54
2019-03-08T10:00:31.044Z,8.70
2019-03-08T10:01:41.850Z,8.90
2019-03-08T10:02:52.659Z,9.12
2019-03-08T10:04:03.624Z,9.29
2019-03-08T10:05:14.430Z,9.44
2019-03-08T10:06:25.251Z,9.58
2019-03-08T10:07:37.063Z,9.74
2019-03-08T10:08:48.384Z,9.90
2019-03-08T10:09:59.203Z,10.05
2019-03-08T10:11:10.032Z,10.20
2019-03-08T10:12:21.363Z,10.39
2019-03-08T10:13:32.200Z,10.53
2019-03-08T10:14:43.035Z,10.62
2019-03-08T10:15:53.878Z,10.71
2019-03-08T10:17:04.724Z,10.81
2019-03-08T10:18:15.570Z,10.93
2019-03-08T10:19:26.910Z,11.00
2019-03-08T10:20:38.247Z,11.11
2019-03-08T10:21:49.624Z,11.29
2019-03-08T10:23:00.474Z,11.60
2019-03-08T10:24:11.340Z,12.04
2019-03-08T10:25:29.928Z,12.43
2019-03-08T10:26:41.306Z,12.78
2019-03-08T10:27:52.180Z,13.02
2019-03-08T10:29:03.069Z,13.09
2019-03-08T10:30:14.443Z,13.03
2019-03-08T10:31:25.316Z,12.99
2019-03-08T10:32:37.602Z,12.94
2019-03-08T10:33:47.190Z,12.82
2019-03-08T10:34:58.963Z,12.67
2019-03-08T10:36:09.858Z,12.53
2019-03-08T10:37:20.753Z,12.42
2019-03-08T10:38:32.141Z,12.44
2019-03-08T10:39:43.026Z,12.52
2019-03-08T10:40:53.921Z,12.54
2019-03-08T10:42:04.821Z,12.40
2019-03-08T10:43:15.719Z,12.22
2019-03-08T10:44:26.624Z,12.07
2019-03-08T10:45:37.996Z,11.90
2019-03-08T10:46:48.880Z,11.64
2019-03-08T10:47:59.776Z,11.29
2019-03-08T10:49:12.150Z,10.99
2019-03-08T10:50:23.033Z,10.79
2019-03-08T10:51:33.905Z,10.70
2019-03-08T10:52:44.789Z,10.65
2019-03-08T10:54:00.553Z,10.57
2019-03-08T10:55:07.027Z,10.52
2019-03-08T10:56:17.901Z,10.62
2019-03-08T10:57:28.780Z,10.86
2019-03-08T10:58:39.661Z,11.14
2019-03-08T10:59:50.542Z,11.46
2019-03-08T11:01:01.425Z,11.64
2019-03-08T11:02:12.309Z,11.75
2019-03-08T11:03:23.243Z,11.72
2019-03-08T11:04:34.090Z,11.59
2019-03-08T11:05:45.622Z,11.43
2019-03-08T11:06:56.546Z,11.30
2019-03-08T11:08:08.992Z,11.25
2019-03-08T11:09:18.794Z,11.24
2019-03-08T11:10:29.675Z,11.22
2019-03-08T11:11:40.574Z,11.25
2019-03-08T11:12:51.633Z,11.37
2019-03-08T11:14:02.523Z,11.54
2019-03-08T11:15:13.910Z,11.87
2019-03-08T11:16:25.072Z,12.68
2019-03-08T11:17:36.198Z,13.69
2019-03-08T11:18:47.106Z,14.41
2019-03-08T11:19:58.008Z,14.54
2019-03-08T11:21:08.924Z,14.61
2019-03-08T11:22:19.831Z,15.07
2019-03-08T11:23:30.764Z,15.62
2019-03-08T11:24:41.676Z,16.17
2019-03-08T11:25:52.606Z,16.67
2019-03-08T11:27:05.203Z,17.24
2019-03-08T11:28:20.926Z,18.02
2019-03-08T11:29:25.903Z,18.56
2019-03-08T11:30:36.843Z,18.54
2019-03-08T11:31:47.800Z,18.28
2019-03-08T11:32:58.768Z,18.03
2019-03-08T11:34:09.904Z,17.66
2019-03-08T11:35:20.869Z,18.08
2019-03-08T11:36:32.341Z,19.75
2019-03-08T11:37:43.345Z,22.57
2019-03-08T11:38:54.366Z,25.51
2019-03-08T11:40:05.901Z,28.09
2019-03-08T11:41:16.967Z,29.81
2019-03-08T11:42:30.075Z,30.92
2019-03-08T11:43:39.242Z,31.50
2019-03-08T11:44:50.384Z,32.36
2019-03-08T11:46:01.528Z,32.99
2019-03-08T11:47:12.696Z,33.37
2019-03-08T11:48:24.389Z,31.57
2019-03-08T11:49:36.562Z,28.41
2019-03-08T11:50:47.735Z,25.68
2019-03-08T11:51:58.902Z,24.05
2019-03-08T11:53:10.068Z,25.79
2019-03-08T11:54:21.251Z,28.10
2019-03-08T11:55:32.438Z,30.35
2019-03-08T11:56:43.644Z,32.13
2019-03-08T11:57:55.870Z,33.33
2019-03-08T11:59:07.118Z,34.30
2019-03-08T12:00:18.374Z,34.88
2019-03-08T12:01:29.651Z,35.43
2019-03-08T12:02:41.440Z,35.90
2019-03-08T12:03:52.767Z,36.31
2019-03-08T12:05:04.079Z,35.54
2019-03-08T12:06:15.403Z,35.12
2019-03-08T12:07:26.732Z,35.43
2019-03-08T12:08:38.072Z,35.68
2019-03-08T12:09:49.912Z,34.86
2019-03-08T12:11:01.248Z,31.92
2019-03-08T12:12:13.059Z,31.33
2019-03-08T12:13:24.387Z,31.35
2019-03-08T12:14:35.720Z,29.51
2019-03-08T12:15:47.031Z,27.02
2019-03-08T12:16:58.315Z,25.78
2019-03-08T12:18:10.101Z,25.54
2019-03-08T12:19:21.389Z,25.80
2019-03-08T12:20:32.659Z,26.68
2019-03-08T12:21:44.417Z,27.00
2019-03-08T12:22:55.688Z,27.54
2019-03-08T12:24:06.971Z,28.72
2019-03-08T12:25:18.260Z,29.86
2019-03-08T12:26:29.554Z,30.55
2019-03-08T12:27:40.857Z,30.67
2019-03-08T12:28:52.161Z,30.76
2019-03-08T12:30:04.481Z,30.65
2019-03-08T12:31:14.953Z,30.13
2019-03-08T12:32:26.268Z,29.02
2019-03-08T12:33:37.599Z,27.65
2019-03-08T12:34:49.446Z,26.34
2019-03-08T12:36:00.796Z,25.36
2019-03-08T12:37:12.168Z,24.74
2019-03-08T12:38:23.516Z,24.38
2019-03-08T12:39:34.879Z,24.20
2019-03-08T12:40:46.259Z,24.18
2019-03-08T12:41:58.133Z,24.38
2019-03-08T12:43:09.530Z,24.80
2019-03-08T12:44:21.423Z,25.53
2019-03-08T12:45:32.828Z,25.39
2019-03-08T12:46:44.717Z,24.83
2019-03-08T12:47:56.582Z,23.94
2019-03-08T12:49:08.006Z,23.84
2019-03-08T12:50:20.367Z,23.71
2019-03-08T12:51:31.724Z,24.56
2019-03-08T12:52:44.073Z,25.03
2019-03-08T12:53:55.422Z,25.96
2019-03-08T12:55:07.266Z,26.30
2019-03-08T12:56:18.638Z,26.88
2019-03-08T12:57:30.504Z,27.47
2019-03-08T12:58:41.876Z,27.96
2019-03-08T12:59:53.257Z,28.46
2019-03-08T13:01:04.645Z,28.87
2019-03-08T13:02:16.526Z,29.17
2019-03-08T13:03:28.429Z,29.34
2019-03-08T13:04:39.819Z,29.33
2019-03-08T13:05:51.215Z,29.26
2019-03-08T13:07:02.626Z,29.33
2019-03-08T13:08:14.541Z,29.78
2019-03-08T13:09:26.460Z,30.16
2019-03-08T13:10:37.902Z,30.65
2019-03-08T13:11:49.850Z,31.37
2019-03-08T13:13:01.300Z,31.95
2019-03-08T13:14:12.749Z,32.07
2019-03-08T13:15:24.212Z,32.14
2019-03-08T13:16:37.168Z,32.10
2019-03-08T13:17:48.626Z,30.32
2019-03-08T13:19:00.052Z,27.91
2019-03-08T13:20:11.960Z,25.80
2019-03-08T13:21:23.844Z,24.01
2019-03-08T13:22:35.221Z,24.10
2019-03-08T13:23:46.582Z,24.59
2019-03-08T13:24:57.946Z,24.56
2019-03-08T13:26:09.805Z,24.41
2019-03-08T13:27:21.169Z,25.12
2019-03-08T13:28:32.536Z,26.41
2019-03-08T13:29:43.895Z,26.80
2019-03-08T13:30:55.244Z,25.84
2019-03-08T13:32:06.607Z,25.06
2019-03-08T13:33:18.447Z,25.25
2019-03-08T13:34:30.287Z,25.15
2019-03-08T13:35:42.117Z,25.06
2019-03-08T13:36:53.459Z,24.14
2019-03-08T13:38:06.827Z,22.82
2019-03-08T13:39:16.091Z,21.61
2019-03-08T13:40:27.365Z,20.76
2019-03-08T13:41:38.645Z,20.60
2019-03-08T13:42:50.413Z,21.39
2019-03-08T13:44:01.702Z,21.56
2019-03-08T13:45:13.072Z,21.32
2019-03-08T13:46:24.340Z,21.73
2019-03-08T13:47:35.629Z,22.76
2019-03-08T13:48:46.920Z,23.46
2019-03-08T13:49:58.727Z,23.44
2019-03-08T13:51:10.015Z,23.95
2019-03-08T13:52:22.346Z,24.68
2019-03-08T13:53:33.619Z,25.32
2019-03-08T13:54:44.946Z,25.87
2019-03-08T13:55:56.792Z,26.15
2019-03-08T13:57:08.276Z,25.91
2019-03-08T13:58:20.115Z,25.79
2019-03-08T13:59:31.776Z,26.09
2019-03-08T14:00:43.822Z,25.96
2019-03-08T14:01:55.439Z,25.36
2019-03-08T14:03:07.059Z,25.06
2019-03-08T14:04:18.418Z,24.74
2019-03-08T14:05:30.259Z,24.01
2019-03-08T14:06:41.590Z,22.97
2019-03-08T14:07:53.421Z,21.83
2019-03-08T14:09:04.711Z,20.78
2019-03-08T14:10:15.988Z,20.00
2019-03-08T14:11:28.742Z,19.62
2019-03-08T14:12:40.028Z,19.24
2019-03-08T14:13:51.762Z,18.74
2019-03-08T14:15:03.678Z,18.40
2019-03-08T14:16:14.897Z,19.07
2019-03-08T14:17:26.125Z,19.37
2019-03-08T14:18:38.839Z,19.29
2019-03-08T14:19:50.040Z,18.90
2019-03-08T14:21:01.245Z,18.97
2019-03-08T14:22:12.440Z,19.02
2019-03-08T14:23:23.645Z,18.80
2019-03-08T14:24:34.825Z,18.65
2019-03-08T14:25:46.009Z,19.33
2019-03-08T14:26:57.196Z,20.17
2019-03-08T14:28:08.393Z,20.54
2019-03-08T14:29:22.430Z,20.81
2019-03-08T14:30:35.995Z,21.34
2019-03-08T14:31:45.433Z,21.92
2019-03-08T14:32:58.022Z,22.27
2019-03-08T14:34:10.699Z,22.54
2019-03-08T14:35:18.867Z,22.78
2019-03-08T14:36:30.115Z,23.24
2019-03-08T14:37:41.851Z,23.71
2019-03-08T14:38:53.112Z,24.22
2019-03-08T14:40:05.863Z,24.61
2019-03-08T14:41:17.630Z,24.84
2019-03-08T14:42:29.908Z,24.99
2019-03-08T14:43:41.184Z,25.23
2019-03-08T14:44:52.479Z,25.44
2019-03-08T14:46:03.771Z,25.87
2019-03-08T14:47:15.626Z,26.29
2019-03-08T14:48:26.942Z,26.69
2019-03-08T14:49:38.749Z,27.08
2019-03-08T14:50:50.043Z,27.33
2019-03-08T14:52:01.348Z,27.26
2019-03-08T14:53:12.643Z,26.70
2019-03-08T14:54:23.949Z,25.97
2019-03-08T14:55:35.231Z,25.27
2019-03-08T14:56:46.500Z,24.35
2019-03-08T14:57:58.873Z,23.57
2019-03-08T14:59:11.243Z,22.70
2019-03-08T15:00:20.247Z,21.74
2019-03-08T15:01:31.463Z,20.81
2019-03-08T15:02:47.124Z,19.90
2019-03-08T15:03:56.579Z,19.00
2019-03-08T15:05:11.183Z,18.19
2019-03-08T15:06:16.199Z,17.52
2019-03-08T15:07:27.352Z,16.69
2019-03-08T15:08:38.490Z,16.07
2019-03-08T15:09:49.622Z,15.65
2019-03-08T15:11:00.733Z,15.24
2019-03-08T15:12:16.615Z,14.91
2019-03-08T15:13:24.156Z,14.69
2019-03-08T15:14:35.300Z,14.48
2019-03-08T15:15:45.071Z,14.39
2019-03-08T15:16:56.137Z,14.41
2019-03-08T15:18:07.193Z,14.35
2019-03-08T15:19:18.239Z,14.23
2019-03-08T15:20:29.288Z,14.17
2019-03-08T15:21:48.295Z,14.04
2019-03-08T15:22:51.929Z,13.95
2019-03-08T15:24:02.958Z,13.82
2019-03-08T15:25:14.097Z,13.55
2019-03-08T15:26:25.006Z,13.29
2019-03-08T15:27:36.016Z,13.08
2019-03-08T15:28:47.028Z,12.92
2019-03-08T15:29:59.629Z,12.77
2019-03-08T15:31:10.621Z,12.61
2019-03-08T15:32:21.621Z,12.46
2019-03-08T15:33:33.648Z,12.34
2019-03-08T15:34:44.621Z,12.22
2019-03-08T15:35:55.603Z,12.13